Terminal Aerodrome Forecast
Issued by NWS Tulsa, OK

Home | Current Version | Previous Version | Text Only | Print | Product List | Glossary On
Versions: 1 2 3 4 5 6 7 8 9 10 11 12 13 14 15
000
FTUS44 KTSA 241100
TAFFSM
TAF
KFSM 241120Z 2412/2512 06011G17KT P6SM BKN070
     FM241600 20011G21KT P6SM VCTS BKN050CB
      TEMPO 2418/2421 5SM -TSRA BR BKN030CB
     FM242200 27013G23KT P6SM BKN050
     FM250100 30009KT P6SM SCT250
     FM250900 33003KT P6SM SKC=

USA.gov is the U.S. government's official web portal to all federal, state and local government web resources and services.